createdAt,value
2023-02-21T00:00:23.797Z,14.80
2023-02-21T00:03:09.756Z,10.90
2023-02-21T00:05:55.526Z,10.68
2023-02-21T00:08:41.234Z,13.18
2023-02-21T00:11:27.136Z,12.02
2023-02-21T00:14:13.195Z,15.10
2023-02-21T00:16:59.180Z,14.55
2023-02-21T00:19:45.218Z,11.93
2023-02-21T00:22:31.459Z,13.45
2023-02-21T00:25:17.313Z,14.18
2023-02-21T00:28:03.439Z,14.60
2023-02-21T00:30:49.338Z,13.43
2023-02-21T00:33:35.260Z,15.35
2023-02-21T00:36:21.095Z,17.50
2023-02-21T00:39:07.025Z,13.52
2023-02-21T00:41:52.951Z,16.05
2023-02-21T00:44:39.003Z,16.70
2023-02-21T00:47:24.868Z,13.80
2023-02-21T00:50:10.862Z,12.25
2023-02-21T00:52:56.503Z,14.02
2023-02-21T00:55:42.584Z,11.93
2023-02-21T00:58:28.616Z,11.27
2023-02-21T01:01:14.928Z,13.13
2023-02-21T01:04:01.202Z,13.75
2023-02-21T01:06:47.107Z,8.95
2023-02-21T01:09:32.989Z,10.18
2023-02-21T01:12:19.122Z,10.60
2023-02-21T01:15:05.086Z,12.65
2023-02-21T01:17:51.160Z,12.48
2023-02-21T01:20:37.314Z,12.40
2023-02-21T01:23:23.310Z,11.82
2023-02-21T01:26:09.208Z,12.73
2023-02-21T01:28:55.254Z,12.77
2023-02-21T01:31:41.222Z,13.35
2023-02-21T01:34:27.294Z,14.23
2023-02-21T01:37:13.228Z,12.63
2023-02-21T01:40:00.405Z,16.83
2023-02-21T01:42:47.572Z,18.23
2023-02-21T01:45:53.734Z,14.23
2023-02-21T01:48:40.784Z,15.45
2023-02-21T01:51:28.511Z,13.70
2023-02-21T01:54:14.695Z,14.25
2023-02-21T01:57:00.596Z,15.65
2023-02-21T01:59:46.779Z,13.13
2023-02-21T02:02:36.671Z,14.23
2023-02-21T02:05:24.113Z,11.25
2023-02-21T02:08:10.736Z,11.90
2023-02-21T02:10:56.593Z,9.70
2023-02-21T02:13:23.652Z,11.27
2023-02-21T02:15:56.736Z,11.35
2023-02-21T02:18:56.129Z,10.52
2023-02-21T02:21:35.116Z,7.30
2023-02-21T02:24:22.832Z,6.18
2023-02-21T02:27:08.425Z,8.90
2023-02-21T02:29:54.437Z,5.90
2023-02-21T02:32:33.760Z,7.60
2023-02-21T02:35:19.370Z,8.10
2023-02-21T02:38:04.447Z,10.43
2023-02-21T02:40:52.121Z,6.65
2023-02-21T02:43:31.552Z,5.85
2023-02-21T02:46:01.761Z,7.00
2023-02-21T02:48:34.925Z,8.45
2023-02-21T02:51:03.757Z,7.35
2023-02-21T02:53:31.060Z,8.27
2023-02-21T02:55:58.163Z,10.32
2023-02-21T02:58:27.385Z,10.05
2023-02-21T03:01:09.613Z,7.50
2023-02-21T03:03:39.559Z,6.68
2023-02-21T03:06:13.847Z,7.18
2023-02-21T03:08:43.870Z,8.02
2023-02-21T03:11:19.043Z,6.07
2023-02-21T03:14:03.132Z,7.13
2023-02-21T03:16:39.028Z,8.43
2023-02-21T03:19:17.861Z,7.93
2023-02-21T03:21:51.451Z,9.07
2023-02-21T03:24:19.724Z,8.55
2023-02-21T03:26:48.693Z,7.72
2023-02-21T03:29:17.001Z,5.38
2023-02-21T03:31:46.025Z,4.40
2023-02-21T03:34:13.250Z,7.93
2023-02-21T03:36:40.617Z,5.35
2023-02-21T03:39:07.757Z,6.75
2023-02-21T03:41:34.833Z,5.93
2023-02-21T03:44:01.925Z,7.10
2023-02-21T03:46:29.103Z,7.57
2023-02-21T03:48:56.251Z,4.88
2023-02-21T03:51:23.687Z,5.80
2023-02-21T03:53:50.851Z,7.35
2023-02-21T03:56:17.924Z,7.32
2023-02-21T03:58:45.013Z,5.70
2023-02-21T04:01:12.311Z,7.68
2023-02-21T04:03:39.516Z,5.30
2023-02-21T04:06:06.806Z,8.00
2023-02-21T04:08:33.980Z,6.88
2023-02-21T04:11:01.076Z,9.23
2023-02-21T04:13:28.172Z,7.78
2023-02-21T04:15:55.314Z,5.15
2023-02-21T04:18:22.422Z,8.10
2023-02-21T04:20:49.574Z,6.03
2023-02-21T04:23:18.594Z,6.55
2023-02-21T04:25:45.846Z,9.90
2023-02-21T04:28:13.027Z,8.18
2023-02-21T04:30:40.241Z,5.82
2023-02-21T04:33:07.446Z,9.70
2023-02-21T04:35:34.543Z,6.68
2023-02-21T04:38:01.729Z,5.25
2023-02-21T04:40:28.905Z,10.30
2023-02-21T04:42:55.995Z,6.07
2023-02-21T04:45:23.148Z,9.00
2023-02-21T04:47:50.224Z,8.30
2023-02-21T04:50:17.358Z,7.13
2023-02-21T04:52:44.575Z,8.70
2023-02-21T04:55:11.663Z,6.18
2023-02-21T04:57:38.744Z,5.45
2023-02-21T05:00:07.362Z,6.53
2023-02-21T05:02:34.502Z,6.57
2023-02-21T05:05:01.718Z,5.78
2023-02-21T05:07:28.921Z,5.65
2023-02-21T05:09:56.036Z,6.28
2023-02-21T05:12:23.171Z,8.43
2023-02-21T05:14:50.299Z,5.97
2023-02-21T05:17:17.660Z,8.50
2023-02-21T05:19:44.761Z,8.38
2023-02-21T05:22:11.881Z,8.07
2023-02-21T05:24:42.624Z,6.18
2023-02-21T05:27:15.775Z,10.23
2023-02-21T05:29:43.819Z,7.00
2023-02-21T05:32:10.950Z,6.25
2023-02-21T05:34:38.109Z,11.13
2023-02-21T05:37:05.191Z,8.65
2023-02-21T05:39:32.366Z,7.70
2023-02-21T05:41:59.632Z,7.25
2023-02-21T05:44:26.704Z,8.45
2023-02-21T05:46:54.348Z,8.07
2023-02-21T05:49:21.523Z,8.73
2023-02-21T05:51:48.716Z,8.20
2023-02-21T05:54:20.240Z,7.32
2023-02-21T05:56:48.043Z,7.45
2023-02-21T05:59:15.852Z,7.55
2023-02-21T06:01:42.937Z,7.07
2023-02-21T06:04:10.056Z,7.00
2023-02-21T06:06:37.624Z,5.93
2023-02-21T06:09:05.714Z,10.35
2023-02-21T06:11:34.454Z,6.28
2023-02-21T06:14:03.520Z,7.13
2023-02-21T06:16:34.985Z,7.35
2023-02-21T06:19:02.563Z,9.65
2023-02-21T06:21:29.650Z,7.68
2023-02-21T06:23:57.234Z,10.13
2023-02-21T06:26:24.441Z,7.05
2023-02-21T06:28:51.858Z,6.60
2023-02-21T06:31:19.768Z,10.25
2023-02-21T06:33:47.936Z,8.93
2023-02-21T06:36:18.607Z,10.02
2023-02-21T06:38:46.468Z,10.35
2023-02-21T06:41:15.828Z,7.25
2023-02-21T06:43:43.123Z,7.60
2023-02-21T06:46:10.276Z,10.70
2023-02-21T06:48:37.408Z,7.75
2023-02-21T06:51:06.890Z,10.75
2023-02-21T06:53:34.183Z,9.00
2023-02-21T06:56:01.275Z,5.93
2023-02-21T06:58:28.433Z,6.85
2023-02-21T07:00:57.196Z,4.45
2023-02-21T07:03:25.602Z,7.70
2023-02-21T07:05:52.714Z,13.27
2023-02-21T07:08:19.904Z,10.43
2023-02-21T07:10:47.013Z,8.73
2023-02-21T07:13:14.198Z,9.63
2023-02-21T07:15:41.430Z,9.35
2023-02-21T07:18:08.582Z,9.73
2023-02-21T07:20:35.821Z,7.22
2023-02-21T07:23:03.104Z,6.75
2023-02-21T07:25:31.394Z,7.38
2023-02-21T07:27:58.455Z,5.55
2023-02-21T07:30:25.718Z,7.72
2023-02-21T07:35:19.836Z,6.00
2023-02-21T07:37:47.063Z,7.07
2023-02-21T07:40:14.231Z,11.13
2023-02-21T07:42:44.471Z,8.77
2023-02-21T07:45:12.215Z,10.98
2023-02-21T07:47:39.625Z,8.15
2023-02-21T07:50:06.969Z,8.20
2023-02-21T07:52:34.601Z,9.50
2023-02-21T07:55:01.993Z,8.90
2023-02-21T07:57:29.120Z,4.30
2023-02-21T07:59:56.354Z,10.35
2023-02-21T08:02:23.945Z,8.07
2023-02-21T08:04:52.052Z,8.73
2023-02-21T08:07:19.759Z,6.95
2023-02-21T08:09:47.216Z,11.55
2023-02-21T08:12:14.340Z,9.35
2023-02-21T08:14:41.473Z,4.95
2023-02-21T08:17:08.599Z,9.65
2023-02-21T08:19:35.701Z,6.93
2023-02-21T08:22:02.868Z,6.97
2023-02-21T08:24:29.956Z,9.70
2023-02-21T08:26:57.136Z,9.60
2023-02-21T08:29:24.330Z,6.40
2023-02-21T08:31:51.587Z,7.70
2023-02-21T08:34:18.744Z,9.57
2023-02-21T08:36:45.946Z,4.53
2023-02-21T08:39:14.101Z,9.93
2023-02-21T08:41:42.295Z,7.75
2023-02-21T08:44:10.316Z,6.57
2023-02-21T08:46:39.520Z,11.00
2023-02-21T08:49:06.737Z,5.40
2023-02-21T08:51:34.183Z,9.13
2023-02-21T08:54:02.053Z,8.57
2023-02-21T08:56:29.200Z,9.43
2023-02-21T08:58:56.401Z,7.70
2023-02-21T09:01:24.554Z,5.90
2023-02-21T09:03:51.788Z,16.55
2023-02-21T09:06:19.028Z,8.77
2023-02-21T09:08:46.187Z,7.78
2023-02-21T09:11:13.623Z,9.30
2023-02-21T09:13:41.810Z,8.13
2023-02-21T09:16:08.943Z,8.23
2023-02-21T09:18:36.042Z,8.90
2023-02-21T09:21:03.245Z,8.32
2023-02-21T09:23:33.588Z,6.60
2023-02-21T09:26:00.767Z,11.17
2023-02-21T09:28:29.451Z,7.90
2023-02-21T09:30:56.596Z,7.65
2023-02-21T09:33:25.193Z,11.40
2023-02-21T09:35:54.110Z,6.40
2023-02-21T09:38:21.266Z,7.25
2023-02-21T09:40:54.248Z,10.55
2023-02-21T09:43:24.124Z,7.25
2023-02-21T09:45:53.209Z,8.45
2023-02-21T09:48:22.869Z,8.27
2023-02-21T09:50:52.457Z,7.68
2023-02-21T09:53:45.995Z,8.77
2023-02-21T09:56:24.852Z,6.40
2023-02-21T09:58:52.158Z,6.55
2023-02-21T10:01:31.325Z,9.90
2023-02-21T10:04:05.740Z,4.95
2023-02-21T10:06:59.161Z,6.82
2023-02-21T10:09:37.021Z,4.90
2023-02-21T10:12:22.793Z,6.95
2023-02-21T10:15:05.017Z,3.33
2023-02-21T10:17:35.580Z,4.72
2023-02-21T10:20:12.371Z,4.63
2023-02-21T10:22:40.979Z,6.88
2023-02-21T10:25:23.298Z,8.95
2023-02-21T10:27:51.143Z,6.30
2023-02-21T10:30:40.954Z,7.10
2023-02-21T10:33:08.818Z,4.40
2023-02-21T10:35:39.830Z,5.50
2023-02-21T10:38:16.322Z,7.82
2023-02-21T10:40:45.731Z,5.95
2023-02-21T10:43:24.201Z,7.03
2023-02-21T10:46:11.761Z,9.65
2023-02-21T10:48:39.953Z,6.78
2023-02-21T10:51:09.899Z,8.07
2023-02-21T10:53:38.291Z,7.25
2023-02-21T10:56:08.307Z,6.35
2023-02-21T10:58:36.431Z,8.30
2023-02-21T11:39:32.855Z,7.90
2023-02-21T11:42:04.817Z,3.45
2023-02-21T11:44:36.420Z,3.67
2023-02-21T11:47:06.508Z,4.35
2023-02-21T11:49:52.641Z,7.28
2023-02-21T11:52:23.397Z,6.55
2023-02-21T11:54:50.521Z,7.35
2023-02-21T11:57:20.479Z,8.98
2023-02-21T12:00:07.508Z,8.45
2023-02-21T12:02:37.511Z,3.92
2023-02-21T12:05:04.766Z,4.25
2023-02-21T12:07:50.472Z,3.65
2023-02-21T12:10:29.960Z,4.95
2023-02-21T12:13:12.149Z,4.43
2023-02-21T12:15:55.005Z,6.28
2023-02-21T12:18:31.281Z,5.82
2023-02-21T12:20:58.356Z,5.75
2023-02-21T12:23:43.634Z,6.63
2023-02-21T12:26:28.629Z,5.00
2023-02-21T12:29:08.092Z,5.82
2023-02-21T12:31:41.620Z,4.90
2023-02-21T12:34:27.516Z,6.15
2023-02-21T12:37:13.603Z,4.50
2023-02-21T12:40:04.711Z,4.78
2023-02-21T12:42:40.751Z,9.10
2023-02-21T12:45:23.629Z,4.63
2023-02-21T12:48:04.468Z,4.93
2023-02-21T12:50:33.972Z,6.82
2023-02-21T12:53:03.353Z,4.50
2023-02-21T12:55:37.673Z,5.82
2023-02-21T12:58:05.654Z,5.35
2023-02-21T13:00:44.321Z,5.18
2023-02-21T13:03:21.538Z,4.10
2023-02-21T13:05:58.102Z,3.95
2023-02-21T13:08:27.156Z,5.90
2023-02-21T13:11:13.527Z,9.98
2023-02-21T13:13:41.021Z,4.13
2023-02-21T13:16:11.380Z,5.32
2023-02-21T13:18:40.717Z,5.30
2023-02-21T13:21:07.977Z,2.65
2023-02-21T13:23:59.888Z,8.35
2023-02-21T13:26:50.575Z,5.15
2023-02-21T13:29:20.677Z,3.78
2023-02-21T13:31:48.644Z,5.65
2023-02-21T13:34:20.616Z,4.63
2023-02-21T13:36:48.606Z,5.18
2023-02-21T13:39:17.957Z,5.78
2023-02-21T13:41:47.308Z,5.32
2023-02-21T13:44:19.144Z,7.47
2023-02-21T13:46:46.381Z,5.53
2023-02-21T13:49:32.636Z,4.93
2023-02-21T13:52:14.855Z,4.57
2023-02-21T13:55:00.680Z,6.07
2023-02-21T13:57:32.209Z,5.05
2023-02-21T13:59:59.320Z,3.47
2023-02-21T14:02:31.203Z,3.67
2023-02-21T14:04:59.228Z,5.18
2023-02-21T14:07:40.759Z,4.30
2023-02-21T14:10:18.363Z,3.63
2023-02-21T14:12:45.818Z,9.70
2023-02-21T14:15:13.746Z,8.18
2023-02-21T14:17:40.813Z,6.07
2023-02-21T14:20:15.720Z,8.20
2023-02-21T14:22:42.904Z,5.28
2023-02-21T14:25:21.701Z,6.18
2023-02-21T14:27:48.797Z,4.05
2023-02-21T14:30:23.729Z,4.15
2023-02-21T14:32:52.693Z,5.13
2023-02-21T14:35:19.818Z,4.15
2023-02-21T14:37:55.769Z,4.88
2023-02-21T14:40:25.610Z,5.70
2023-02-21T14:43:02.590Z,3.47
2023-02-21T14:45:50.630Z,5.10
2023-02-21T14:48:23.892Z,6.80
2023-02-21T14:51:11.066Z,4.40
2023-02-21T14:53:43.621Z,4.93
2023-02-21T14:56:10.700Z,3.60
2023-02-21T14:58:56.315Z,4.50
2023-02-21T15:01:39.042Z,7.25
2023-02-21T15:04:13.794Z,4.00
2023-02-21T15:06:42.966Z,3.90
2023-02-21T15:09:14.376Z,3.10
2023-02-21T15:11:42.029Z,1.88
2023-02-21T15:14:26.888Z,6.47
2023-02-21T15:16:54.107Z,4.35
2023-02-21T15:19:34.969Z,4.03
2023-02-21T15:22:08.158Z,2.05
2023-02-21T15:24:35.354Z,3.80
2023-02-21T15:27:14.706Z,2.72
2023-02-21T15:29:42.015Z,3.83
2023-02-21T15:32:12.548Z,7.18
2023-02-21T15:34:41.914Z,5.18
2023-02-21T15:37:20.145Z,3.63
2023-02-21T15:39:55.327Z,1.88
2023-02-21T15:42:23.365Z,4.13
2023-02-21T15:44:53.064Z,4.22
2023-02-21T15:47:24.298Z,3.45
2023-02-21T15:50:09.935Z,6.03
2023-02-21T15:52:37.012Z,5.78
2023-02-21T15:55:19.463Z,4.60
2023-02-21T15:57:46.511Z,8.10
2023-02-21T16:00:32.180Z,4.65
2023-02-21T16:03:17.909Z,5.90
2023-02-21T16:05:45.047Z,7.55
2023-02-21T16:08:14.635Z,4.03
2023-02-21T16:10:41.883Z,5.70
2023-02-21T16:13:09.091Z,4.35
2023-02-21T16:15:37.339Z,7.70
2023-02-21T16:18:06.119Z,8.60
2023-02-21T16:20:34.991Z,2.38
2023-02-21T16:23:20.596Z,1.95
2023-02-21T16:26:20.696Z,1.60
2023-02-21T16:28:47.809Z,3.72
2023-02-21T16:31:16.857Z,3.28
2023-02-21T16:33:44.238Z,2.40
2023-02-21T16:36:18.550Z,2.92
2023-02-21T16:38:45.703Z,1.77
2023-02-21T16:41:15.751Z,3.72
2023-02-21T16:43:43.269Z,2.10
2023-02-21T16:46:10.498Z,3.67
2023-02-21T16:48:37.668Z,3.80
2023-02-21T16:51:06.316Z,3.40
2023-02-21T16:53:33.699Z,3.22
2023-02-21T16:56:01.841Z,2.97
2023-02-21T16:58:30.687Z,3.22
2023-02-21T17:00:59.173Z,5.82
2023-02-21T17:03:28.468Z,3.55
2023-02-21T17:05:56.296Z,3.22
2023-02-21T17:08:23.530Z,2.40
2023-02-21T17:10:51.039Z,2.50
2023-02-21T17:13:18.217Z,3.38
2023-02-21T17:15:45.556Z,2.53
2023-02-21T17:18:12.643Z,2.92
2023-02-21T17:20:39.721Z,2.00
2023-02-21T17:23:07.179Z,4.25
2023-02-21T17:25:36.363Z,3.80
2023-02-21T17:28:03.877Z,3.47
2023-02-21T17:30:31.628Z,3.17
2023-02-21T17:32:58.940Z,4.20
2023-02-21T17:35:26.083Z,3.65
2023-02-21T17:37:53.374Z,5.05
2023-02-21T17:40:21.754Z,3.95
2023-02-21T17:42:49.121Z,3.90
2023-02-21T17:45:21.574Z,7.45
2023-02-21T17:47:49.488Z,5.28
2023-02-21T17:50:17.216Z,8.15
2023-02-21T17:52:44.718Z,7.75
2023-02-21T17:55:16.823Z,6.78
2023-02-21T17:57:44.010Z,4.60
2023-02-21T18:00:14.092Z,5.10
2023-02-21T18:02:41.302Z,4.63
2023-02-21T18:05:08.724Z,2.30
2023-02-21T18:07:35.921Z,5.72
2023-02-21T18:10:03.790Z,3.97
2023-02-21T18:12:33.215Z,4.97
2023-02-21T18:15:00.798Z,2.42
2023-02-21T18:17:27.936Z,2.53
2023-02-21T18:19:55.066Z,2.80
2023-02-21T18:22:22.252Z,3.75
2023-02-21T18:24:49.421Z,5.50
2023-02-21T18:27:16.594Z,2.65
2023-02-21T18:29:43.850Z,4.07
2023-02-21T18:32:10.955Z,5.35
2023-02-21T18:34:38.054Z,6.50
2023-02-21T18:37:05.254Z,5.60
2023-02-21T18:39:33.331Z,6.70
2023-02-21T18:42:00.510Z,5.75
2023-02-21T18:44:27.647Z,5.05
2023-02-21T18:46:55.715Z,4.88
2023-02-21T18:49:23.360Z,6.95
2023-02-21T18:51:50.998Z,5.85
2023-02-21T18:54:18.570Z,4.93
2023-02-21T18:56:48.835Z,4.93
2023-02-21T18:59:19.801Z,4.80
2023-02-21T19:01:50.608Z,3.58
2023-02-21T19:04:18.097Z,5.97
2023-02-21T19:06:45.288Z,5.07
2023-02-21T19:09:12.425Z,5.15
2023-02-21T19:11:39.580Z,4.45
2023-02-21T19:14:06.789Z,3.97
2023-02-21T19:16:34.119Z,4.75
2023-02-21T19:19:04.592Z,5.82
2023-02-21T19:21:32.064Z,3.65
2023-02-21T19:23:59.308Z,2.88
2023-02-21T19:26:30.190Z,4.03
2023-02-21T19:28:57.511Z,4.65
2023-02-21T19:31:24.970Z,4.50
2023-02-21T19:33:52.145Z,5.25
2023-02-21T19:36:20.376Z,3.70
2023-02-21T19:38:47.539Z,9.02
2023-02-21T19:41:17.808Z,6.00
2023-02-21T19:43:45.169Z,7.28
2023-02-21T19:46:26.121Z,5.32
2023-02-21T19:48:57.134Z,3.95
2023-02-21T19:51:25.406Z,5.43
2023-02-21T19:53:52.708Z,4.30
2023-02-21T19:56:19.910Z,3.85
2023-02-21T19:58:47.318Z,5.50
2023-02-21T20:01:14.957Z,5.20
2023-02-21T20:03:42.472Z,4.90
2023-02-21T20:06:09.616Z,5.32
2023-02-21T20:08:36.683Z,4.90
2023-02-21T20:11:03.960Z,4.07
2023-02-21T20:13:31.087Z,5.65
2023-02-21T20:15:58.422Z,6.45
2023-02-21T20:18:25.609Z,6.00
2023-02-21T20:20:52.730Z,6.25
2023-02-21T20:23:19.898Z,7.18
2023-02-21T20:25:47.071Z,4.65
2023-02-21T20:28:14.162Z,4.53
2023-02-21T20:30:41.324Z,3.38
2023-02-21T20:33:08.614Z,4.95
2023-02-21T20:35:35.788Z,4.25
2023-02-21T20:38:05.737Z,5.53
2023-02-21T20:40:33.443Z,4.88
2023-02-21T20:43:00.607Z,4.13
2023-02-21T20:45:28.265Z,5.38
2023-02-21T20:47:55.452Z,5.88
2023-02-21T20:50:24.052Z,4.90
2023-02-21T20:52:51.269Z,5.70
2023-02-21T20:55:22.282Z,5.53
2023-02-21T20:57:49.777Z,5.80
2023-02-21T21:00:18.676Z,4.68
2023-02-21T21:02:45.855Z,5.35
2023-02-21T21:05:16.776Z,2.65
2023-02-21T21:07:44.535Z,3.47
2023-02-21T21:10:14.557Z,2.60
2023-02-21T21:12:42.276Z,2.25
2023-02-21T21:15:10.384Z,2.65
2023-02-21T21:17:39.293Z,3.63
2023-02-21T21:20:10.298Z,3.75
2023-02-21T21:22:37.526Z,2.97
2023-02-21T21:25:04.840Z,2.65
2023-02-21T21:27:32.783Z,3.33
2023-02-21T21:30:01.093Z,2.67
2023-02-21T21:32:28.620Z,4.82
2023-02-21T21:34:57.316Z,3.03
2023-02-21T21:37:26.589Z,4.03
2023-02-21T21:39:54.676Z,3.53
2023-02-21T21:42:24.980Z,4.30
2023-02-21T21:44:53.689Z,2.92
2023-02-21T21:47:24.963Z,3.78
2023-02-21T21:49:52.268Z,4.13
2023-02-21T21:52:20.230Z,3.63
2023-02-21T21:54:47.826Z,3.30
2023-02-21T21:57:18.524Z,4.03
2023-02-21T21:59:45.675Z,4.47
2023-02-21T22:02:13.816Z,3.58
2023-02-21T22:04:41.038Z,3.38
2023-02-21T22:07:08.981Z,4.30
2023-02-21T22:09:36.614Z,5.63
2023-02-21T22:12:04.499Z,6.72
2023-02-21T22:14:31.616Z,5.65
2023-02-21T22:16:59.054Z,6.30
2023-02-21T22:19:26.976Z,5.93
2023-02-21T22:21:59.306Z,7.18
2023-02-21T22:24:26.392Z,8.45
2023-02-21T22:26:54.462Z,8.07
2023-02-21T22:29:22.502Z,10.43
2023-02-21T22:31:52.164Z,11.15
2023-02-21T22:34:25.689Z,10.02
2023-02-21T22:36:57.330Z,9.77
2023-02-21T22:39:24.900Z,9.13
2023-02-21T22:41:52.124Z,12.93
2023-02-21T22:44:19.433Z,9.80
2023-02-21T22:46:47.520Z,12.40
2023-02-21T22:49:17.924Z,9.82
2023-02-21T22:51:45.056Z,10.98
2023-02-21T22:54:14.400Z,12.00
2023-02-21T22:56:50.949Z,12.13
2023-02-21T22:59:19.269Z,9.35
2023-02-21T23:01:46.771Z,9.77
2023-02-21T23:04:25.464Z,11.57
2023-02-21T23:06:56.525Z,10.27
2023-02-21T23:09:24.503Z,13.52
2023-02-21T23:11:52.815Z,10.50
2023-02-21T23:14:22.015Z,12.20
2023-02-21T23:16:49.539Z,11.70
2023-02-21T23:19:16.901Z,10.50
2023-02-21T23:21:48.078Z,10.18
2023-02-21T23:24:16.173Z,10.48
2023-02-21T23:26:44.477Z,13.32
2023-02-21T23:29:16.262Z,7.95
2023-02-21T23:31:43.477Z,9.88
2023-02-21T23:34:12.023Z,11.18
2023-02-21T23:36:39.691Z,10.15
2023-02-21T23:39:09.144Z,10.18
2023-02-21T23:41:40.615Z,10.25
2023-02-21T23:44:10.869Z,9.38
2023-02-21T23:46:42.555Z,8.73
2023-02-21T23:49:11.163Z,9.43
2023-02-21T23:51:38.870Z,7.75
2023-02-21T23:54:07.292Z,6.80
2023-02-21T23:56:35.554Z,7.43
2023-02-21T23:59:06.069Z,8.00
